KDUB

Dubois Municipal Airport

Dubois, Wyoming, USA
METAR KDUB 181435Z AUTO 31010KT 10SM CLR 12/07 A3033 RMK AO2
Observed Flight Rules
Aug-18 @ 14:35 UTC (16 minutes ago) Visual Flight Rules
Wind Visibility Clouds
310° at 10 knots 10 miles
  • Clear skies
Temperatures Readings
Current 12°C / 54°F
Dewpoint 7°C / 45°F
Humidity 72%
Altimeter 30.33" Hg
Pressure 1027 hPa
Elevation 2224
METAR KDUB 181435Z AUTO 31010KT 10SM CLR 12/07 A3033 RMK AO2
Observed Flight Rules
Aug-18 @ 14:35 UTC
(16 minutes ago)
VFR
Wind Visibility
310° at 10 knots 10 miles
Clouds
  • Clear skies
Temperature Dewpoint
12°C / 54°F 7°C / 45°F
Humidity Altimeter Pressure
72% 30.33" Hg 1027 hPa